createdAt,value
2022-11-02T00:01:45.689Z,1.20
2022-11-02T00:04:32.757Z,1.00
2022-11-02T00:07:19.616Z,0.93
2022-11-02T00:10:07.223Z,1.00
2022-11-02T00:12:54.159Z,1.03
2022-11-02T00:15:40.773Z,0.97
2022-11-02T00:18:29.285Z,0.77
2022-11-02T00:21:18.843Z,1.03
2022-11-02T00:24:07.105Z,1.20
2022-11-02T00:26:55.194Z,0.90
2022-11-02T00:29:42.191Z,1.00
2022-11-02T00:32:29.485Z,0.90
2022-11-02T00:35:17.773Z,1.17
2022-11-02T00:38:04.758Z,1.00
2022-11-02T00:40:52.054Z,0.80
2022-11-02T00:43:38.799Z,1.23
2022-11-02T00:46:25.430Z,0.97
2022-11-02T00:49:12.450Z,1.07
2022-11-02T00:52:00.975Z,0.90
2022-11-02T00:54:47.522Z,1.40
2022-11-02T00:57:34.176Z,1.10
2022-11-02T01:00:21.527Z,1.30
2022-11-02T01:03:08.054Z,0.83
2022-11-02T01:05:55.137Z,0.97
2022-11-02T01:08:43.785Z,0.90
2022-11-02T01:11:30.456Z,1.20
2022-11-02T01:14:17.331Z,0.90
2022-11-02T01:17:04.847Z,1.20
2022-11-02T01:19:52.246Z,1.10
2022-11-02T01:22:39.215Z,1.00
2022-11-02T01:25:27.717Z,1.10
2022-11-02T01:28:14.536Z,1.10
2022-11-02T01:31:01.471Z,1.10
2022-11-02T01:33:48.661Z,0.97
2022-11-02T01:36:35.366Z,1.53
2022-11-02T01:39:21.879Z,1.53
2022-11-02T01:42:20.197Z,1.40
2022-11-02T01:45:07.954Z,0.80
2022-11-02T01:47:56.031Z,0.83
2022-11-02T01:50:43.269Z,1.40
2022-11-02T01:53:32.866Z,0.87
2022-11-02T01:59:19.346Z,1.00
2022-11-02T02:02:08.916Z,1.10
2022-11-02T02:05:07.812Z,0.87
2022-11-02T02:07:56.666Z,0.97
2022-11-02T02:10:43.282Z,0.93
2022-11-02T02:13:30.547Z,1.10
2022-11-02T02:16:31.136Z,0.90
2022-11-02T02:19:38.584Z,1.00
2022-11-02T02:23:11.679Z,1.10
2022-11-02T02:26:37.354Z,0.83
2022-11-02T02:29:29.996Z,0.90
2022-11-02T02:32:21.607Z,0.80
2022-11-02T02:35:16.470Z,0.90
2022-11-02T02:38:07.034Z,1.40
2022-11-02T02:41:00.616Z,0.80
2022-11-02T02:43:50.439Z,1.10
2022-11-02T02:46:46.511Z,1.13
2022-11-02T02:49:41.361Z,0.73
2022-11-02T02:52:29.303Z,1.40
2022-11-02T02:55:21.626Z,1.07
2022-11-02T02:58:12.401Z,1.07
2022-11-02T03:01:01.954Z,1.00
2022-11-02T03:03:50.449Z,0.93
2022-11-02T03:06:38.222Z,0.93
2022-11-02T03:09:32.309Z,0.90
2022-11-02T03:12:33.555Z,1.00
2022-11-02T03:15:24.559Z,1.40
2022-11-02T03:18:19.350Z,3.13
2022-11-02T03:21:14.415Z,2.60
2022-11-02T03:24:06.962Z,1.37
2022-11-02T03:27:06.175Z,0.80
2022-11-02T03:29:57.122Z,0.70
2022-11-02T03:32:54.383Z,1.10
2022-11-02T03:35:48.570Z,1.00
2022-11-02T03:38:44.344Z,1.00
2022-11-02T03:41:33.144Z,1.10
2022-11-02T03:44:24.875Z,1.00
2022-11-02T03:47:14.463Z,1.20
2022-11-02T03:50:03.281Z,0.90
2022-11-02T03:52:55.496Z,1.10
2022-11-02T03:55:49.068Z,1.10
2022-11-02T03:58:37.325Z,0.70
2022-11-02T04:01:24.324Z,1.03
2022-11-02T04:04:11.771Z,1.13
2022-11-02T04:06:58.570Z,1.13
2022-11-02T04:09:45.579Z,0.90
2022-11-02T04:12:50.655Z,0.93
2022-11-02T04:15:37.481Z,1.27
2022-11-02T04:18:41.785Z,0.80
2022-11-02T04:21:29.121Z,0.93
2022-11-02T04:24:34.426Z,1.33
2022-11-02T04:27:21.546Z,0.93
2022-11-02T04:30:11.250Z,1.60
2022-11-02T04:33:15.562Z,1.47
2022-11-02T04:36:03.648Z,1.27
2022-11-02T04:38:49.854Z,0.93
2022-11-02T04:41:45.919Z,1.00
2022-11-02T04:44:33.036Z,1.23
2022-11-02T04:47:21.230Z,0.93
2022-11-02T04:50:08.350Z,1.20
2022-11-02T04:52:57.608Z,1.00
2022-11-02T04:55:47.266Z,1.13
2022-11-02T04:58:35.900Z,1.27
2022-11-02T05:01:25.270Z,1.73
2022-11-02T05:04:13.462Z,1.40
2022-11-02T05:07:01.610Z,1.20
2022-11-02T05:09:49.722Z,0.90
2022-11-02T05:12:36.536Z,1.57
2022-11-02T05:15:23.534Z,1.30
2022-11-02T05:18:13.598Z,1.10
2022-11-02T05:21:04.926Z,1.17
2022-11-02T05:23:51.691Z,1.23
2022-11-02T05:26:38.828Z,0.90
2022-11-02T05:29:25.655Z,1.43
2022-11-02T05:32:12.576Z,1.00
2022-11-02T05:34:59.218Z,1.90
2022-11-02T05:37:47.624Z,1.23
2022-11-02T05:40:37.588Z,1.07
2022-11-02T05:43:24.744Z,1.30
2022-11-02T05:46:11.279Z,1.00
2022-11-02T05:48:58.172Z,1.23
2022-11-02T05:51:45.152Z,0.90
2022-11-02T05:54:33.055Z,1.40
2022-11-02T05:57:19.984Z,1.40
2022-11-02T06:00:08.365Z,1.10
2022-11-02T06:02:58.516Z,1.27
2022-11-02T06:05:45.494Z,1.10
2022-11-02T06:08:33.560Z,1.10
2022-11-02T06:11:21.978Z,1.30
2022-11-02T06:14:09.134Z,1.00
2022-11-02T06:16:55.815Z,1.33
2022-11-02T06:19:43.002Z,1.30
2022-11-02T06:22:29.997Z,1.00
2022-11-02T06:25:16.840Z,1.40
2022-11-02T06:28:04.811Z,1.00
2022-11-02T06:30:52.043Z,1.20
2022-11-02T06:33:38.965Z,1.17
2022-11-02T06:36:27.043Z,1.20
2022-11-02T06:39:14.018Z,1.00
2022-11-02T06:42:01.013Z,0.97
2022-11-02T06:44:48.931Z,0.87
2022-11-02T06:47:37.185Z,0.80
2022-11-02T06:50:24.939Z,0.77
2022-11-02T06:53:11.664Z,0.63
2022-11-02T06:55:59.561Z,1.03
2022-11-02T06:58:46.425Z,1.07
2022-11-02T07:01:35.310Z,1.20
2022-11-02T07:04:23.067Z,0.90
2022-11-02T07:07:09.949Z,0.83
2022-11-02T07:09:56.555Z,0.57
2022-11-02T07:12:43.582Z,0.70
2022-11-02T07:15:30.546Z,0.80
2022-11-02T07:18:18.644Z,0.80
2022-11-02T07:21:05.867Z,0.50
2022-11-02T07:23:53.256Z,0.73
2022-11-02T07:26:40.412Z,0.73
2022-11-02T07:29:27.526Z,0.63
2022-11-02T07:32:14.317Z,0.70
2022-11-02T07:35:02.757Z,0.70
2022-11-02T07:37:56.660Z,0.80
2022-11-02T07:40:43.227Z,1.17
2022-11-02T07:43:30.625Z,0.80
2022-11-02T07:46:17.327Z,0.77
2022-11-02T07:49:03.987Z,0.90
2022-11-02T07:51:52.095Z,1.03
2022-11-02T07:54:44.326Z,0.80
2022-11-02T07:57:31.830Z,0.97
2022-11-02T08:00:18.976Z,0.70
2022-11-02T08:03:07.642Z,0.80
2022-11-02T08:05:54.988Z,0.70
2022-11-02T08:08:43.144Z,0.83
2022-11-02T08:11:30.442Z,0.70
2022-11-02T08:14:17.335Z,0.67
2022-11-02T08:17:04.361Z,0.90
2022-11-02T08:19:51.327Z,0.80
2022-11-02T08:22:38.941Z,0.80
2022-11-02T08:25:27.356Z,0.80
2022-11-02T08:28:16.491Z,0.90
2022-11-02T08:31:03.457Z,0.90
2022-11-02T08:33:50.284Z,0.93
2022-11-02T08:36:38.881Z,1.10
2022-11-02T08:39:26.057Z,0.80
2022-11-02T08:42:14.284Z,1.03
2022-11-02T08:45:01.012Z,0.90
2022-11-02T08:47:48.192Z,0.70
2022-11-02T08:50:36.627Z,0.80
2022-11-02T08:53:23.472Z,0.80
2022-11-02T08:56:10.281Z,1.00
2022-11-02T08:58:58.677Z,1.10
2022-11-02T09:01:45.842Z,0.97
2022-11-02T09:04:32.993Z,1.03
2022-11-02T09:07:19.875Z,1.10
2022-11-02T09:10:08.572Z,0.70
2022-11-02T09:12:55.538Z,1.10
2022-11-02T09:15:43.587Z,1.00
2022-11-02T09:18:31.981Z,1.17
2022-11-02T09:21:18.954Z,1.07
2022-11-02T09:24:06.152Z,1.27
2022-11-02T09:26:54.072Z,1.00
2022-11-02T09:29:40.748Z,0.90
2022-11-02T09:32:33.348Z,0.80
2022-11-02T09:35:20.645Z,0.80
2022-11-02T09:38:07.966Z,1.00
2022-11-02T09:41:06.221Z,1.10
2022-11-02T09:44:02.401Z,0.80
2022-11-02T09:47:17.748Z,0.90
2022-11-02T09:50:02.066Z,1.10
2022-11-02T09:52:54.363Z,1.30
2022-11-02T09:55:48.115Z,1.00
2022-11-02T09:58:38.851Z,1.20
2022-11-02T10:01:43.579Z,0.90
2022-11-02T10:04:54.967Z,1.03
2022-11-02T10:07:57.437Z,0.90
2022-11-02T10:11:02.953Z,0.87
2022-11-02T10:13:59.476Z,1.07
2022-11-02T10:16:50.891Z,1.10
2022-11-02T10:19:41.526Z,1.03
2022-11-02T10:22:33.504Z,0.88
2022-11-02T10:25:22.072Z,1.08
2022-11-02T10:28:15.094Z,0.93
2022-11-02T10:31:03.129Z,0.95
2022-11-02T10:33:52.896Z,1.20
2022-11-02T10:36:50.344Z,1.50
2022-11-02T10:39:47.072Z,1.27
2022-11-02T10:43:05.476Z,1.23
2022-11-02T10:46:18.057Z,0.95
2022-11-02T10:49:14.937Z,0.85
2022-11-02T10:52:01.967Z,1.00
2022-11-02T10:54:51.627Z,1.13
2022-11-02T10:57:40.941Z,1.27
2022-11-02T11:00:33.933Z,1.20
2022-11-02T11:03:20.885Z,0.90
2022-11-02T11:06:07.880Z,0.98
2022-11-02T11:09:01.535Z,0.68
2022-11-02T11:11:57.010Z,1.08
2022-11-02T11:21:05.568Z,0.90
2022-11-02T11:23:52.411Z,1.02
2022-11-02T11:26:39.400Z,0.93
2022-11-02T11:29:25.907Z,0.60
2022-11-02T11:32:17.905Z,0.60
2022-11-02T11:35:11.810Z,1.00
2022-11-02T11:38:01.378Z,0.90
2022-11-02T11:40:53.765Z,1.05
2022-11-02T11:43:41.754Z,0.80
2022-11-02T11:46:41.688Z,0.80
2022-11-02T11:49:48.166Z,1.42
2022-11-02T11:52:40.212Z,0.85
2022-11-02T11:55:29.721Z,1.02
2022-11-02T11:58:21.289Z,1.00
2022-11-02T12:01:17.289Z,0.90
2022-11-02T12:04:04.226Z,0.88
2022-11-02T12:06:58.521Z,1.30
2022-11-02T12:09:54.073Z,1.15
2022-11-02T12:12:57.140Z,1.02
2022-11-02T12:15:57.723Z,1.10
2022-11-02T12:19:02.466Z,1.25
2022-11-02T12:21:59.781Z,1.20
2022-11-02T12:25:06.082Z,0.77
2022-11-02T12:28:04.248Z,0.85
2022-11-02T12:31:01.279Z,1.13
2022-11-02T12:34:01.650Z,0.80
2022-11-02T12:43:29.825Z,1.35
2022-11-02T12:46:28.390Z,1.10
2022-11-02T12:49:35.888Z,1.20
2022-11-02T12:52:36.614Z,1.27
2022-11-02T12:55:31.957Z,1.20
2022-11-02T12:58:24.568Z,1.25
2022-11-02T13:01:17.965Z,1.30
2022-11-02T13:04:14.336Z,0.98
2022-11-02T13:07:05.226Z,1.02
2022-11-02T13:09:58.251Z,0.95
2022-11-02T13:12:49.822Z,1.30
2022-11-02T13:15:39.019Z,1.00
2022-11-02T13:18:31.269Z,1.17
2022-11-02T13:21:22.970Z,1.50
2022-11-02T13:24:18.409Z,0.90
2022-11-02T13:27:21.687Z,1.30
2022-11-02T13:30:17.794Z,1.30
2022-11-02T13:33:09.740Z,1.08
2022-11-02T13:35:56.309Z,1.15
2022-11-02T13:38:47.817Z,1.65
2022-11-02T13:41:48.433Z,1.02
2022-11-02T13:45:03.084Z,1.05
2022-11-02T13:48:19.990Z,1.27
2022-11-02T13:51:14.294Z,1.20
2022-11-02T13:54:04.683Z,1.30
2022-11-02T13:56:55.152Z,1.08
2022-11-02T13:59:46.512Z,0.98
2022-11-02T14:02:38.784Z,1.00
2022-11-02T14:05:30.409Z,1.30
2022-11-02T14:08:26.696Z,1.20
2022-11-02T14:11:33.709Z,1.30
2022-11-02T14:14:23.596Z,1.05
2022-11-02T14:17:15.102Z,0.90
2022-11-02T14:20:04.872Z,1.08
2022-11-02T14:23:24.755Z,1.30
2022-11-02T14:26:55.988Z,1.27
2022-11-02T14:29:52.067Z,1.48
2022-11-02T14:32:56.595Z,1.20
2022-11-02T14:35:47.125Z,1.20
2022-11-02T14:38:53.696Z,1.00
2022-11-02T14:42:04.394Z,1.17
2022-11-02T14:45:26.256Z,1.47
2022-11-02T14:48:17.227Z,1.33
2022-11-02T14:51:08.223Z,1.23
2022-11-02T14:54:00.452Z,1.37
2022-11-02T14:56:56.565Z,1.30
2022-11-02T14:59:57.673Z,1.30
2022-11-02T15:02:45.162Z,1.20
2022-11-02T15:05:36.211Z,1.20
2022-11-02T15:08:27.040Z,1.20
2022-11-02T15:11:45.904Z,1.10
2022-11-02T15:15:02.321Z,1.40
2022-11-02T15:18:27.875Z,1.60
2022-11-02T15:21:25.974Z,1.50
2022-11-02T15:24:18.818Z,1.40
2022-11-02T15:27:08.396Z,0.90
2022-11-02T15:29:55.342Z,1.40
2022-11-02T15:32:48.588Z,1.20
2022-11-02T15:35:38.670Z,1.30
2022-11-02T15:38:33.939Z,1.40
2022-11-02T15:41:30.256Z,1.47
2022-11-02T15:44:32.299Z,1.93
2022-11-02T15:47:29.668Z,1.60
2022-11-02T15:50:36.538Z,1.30
2022-11-02T15:54:00.497Z,1.40
2022-11-02T15:57:05.175Z,1.40
2022-11-02T16:00:10.476Z,1.93
2022-11-02T16:03:03.065Z,0.83
2022-11-02T16:05:51.495Z,1.33
2022-11-02T16:08:39.213Z,1.70
2022-11-02T16:11:25.894Z,2.03
2022-11-02T16:14:18.271Z,1.70
2022-11-02T16:17:04.896Z,1.07
2022-11-02T16:19:51.977Z,1.23
2022-11-02T16:22:41.281Z,1.30
2022-11-02T16:25:38.489Z,1.73
2022-11-02T16:28:28.929Z,1.37
2022-11-02T16:31:19.869Z,1.73
2022-11-02T16:34:19.331Z,1.60
2022-11-02T16:37:10.506Z,2.00
2022-11-02T16:39:59.491Z,1.50
2022-11-02T16:42:48.255Z,1.70
2022-11-02T16:45:43.259Z,1.83
2022-11-02T16:48:32.697Z,2.10
2022-11-02T16:51:20.263Z,2.23
2022-11-02T16:54:30.400Z,3.83
2022-11-02T16:57:22.423Z,4.37
2022-11-02T17:00:19.056Z,4.00
2022-11-02T17:03:10.503Z,3.53
2022-11-02T17:05:59.047Z,3.70
2022-11-02T17:08:51.903Z,3.93
2022-11-02T17:11:43.411Z,4.67
2022-11-02T17:14:32.773Z,5.33
2022-11-02T17:17:41.139Z,2.97
2022-11-02T17:20:28.854Z,2.73
2022-11-02T17:23:33.314Z,2.73
2022-11-02T17:26:34.232Z,3.97
2022-11-02T17:29:34.876Z,10.53
2022-11-02T17:32:22.515Z,10.60
2022-11-02T17:35:17.350Z,4.57
2022-11-02T17:38:04.957Z,3.90
2022-11-02T17:40:52.506Z,3.17
2022-11-02T17:43:38.425Z,1.90
2022-11-02T17:46:26.524Z,2.30
2022-11-02T17:49:13.342Z,6.20
2022-11-02T17:52:00.316Z,5.90
2022-11-02T17:54:47.101Z,5.13
2022-11-02T17:57:34.145Z,3.10
2022-11-02T18:00:21.755Z,3.17
2022-11-02T18:03:17.361Z,2.47
2022-11-02T18:06:04.062Z,4.27
2022-11-02T18:09:08.330Z,5.40
2022-11-02T18:11:54.961Z,7.80
2022-11-02T18:14:41.879Z,4.57
2022-11-02T18:17:32.413Z,3.60
2022-11-02T18:20:23.841Z,3.30
2022-11-02T18:23:15.966Z,5.47
2022-11-02T18:26:02.802Z,4.10
2022-11-02T18:28:49.497Z,2.90
2022-11-02T18:31:37.372Z,2.80
2022-11-02T18:34:24.094Z,1.83
2022-11-02T18:37:12.553Z,2.30
2022-11-02T18:39:59.343Z,2.23
2022-11-02T18:42:47.156Z,4.70
2022-11-02T18:45:34.016Z,5.03
2022-11-02T18:48:20.567Z,5.67
2022-11-02T18:51:07.660Z,2.37
2022-11-02T18:53:57.155Z,3.30
2022-11-02T18:56:43.823Z,2.90
2022-11-02T18:59:30.647Z,2.70
2022-11-02T19:02:17.882Z,4.27
2022-11-02T19:05:25.450Z,5.07
2022-11-02T19:08:29.700Z,4.00
2022-11-02T19:11:17.992Z,5.07
2022-11-02T19:14:05.654Z,4.50
2022-11-02T19:16:52.668Z,4.57
2022-11-02T19:19:40.997Z,2.93
2022-11-02T19:22:28.333Z,2.40
2022-11-02T19:25:16.232Z,3.00
2022-11-02T19:28:05.475Z,2.20
2022-11-02T19:30:52.438Z,2.87
2022-11-02T19:33:39.243Z,2.67
2022-11-02T19:36:26.435Z,2.20
2022-11-02T19:39:13.363Z,2.33
2022-11-02T19:42:00.066Z,3.00
2022-11-02T19:44:48.676Z,3.00
2022-11-02T19:47:35.645Z,2.17
2022-11-02T19:50:22.390Z,2.03
2022-11-02T19:53:09.609Z,1.80
2022-11-02T19:55:56.617Z,1.97
2022-11-02T19:58:45.338Z,2.17
2022-11-02T20:01:35.050Z,2.47
2022-11-02T20:04:22.124Z,2.03
2022-11-02T20:07:08.983Z,2.57
2022-11-02T20:09:58.759Z,2.33
2022-11-02T20:12:46.655Z,2.23
2022-11-02T20:15:37.967Z,2.60
2022-11-02T20:18:29.407Z,3.23
2022-11-02T20:21:17.727Z,3.43
2022-11-02T20:24:05.160Z,3.33
2022-11-02T20:26:56.126Z,3.80
2022-11-02T20:29:43.873Z,3.73
2022-11-02T20:32:31.004Z,3.93
2022-11-02T20:35:24.609Z,2.67
2022-11-02T20:38:11.664Z,3.10
2022-11-02T20:41:05.985Z,2.77
2022-11-02T20:43:54.756Z,3.20
2022-11-02T20:46:42.421Z,2.30
2022-11-02T20:49:49.399Z,2.30
2022-11-02T20:52:39.085Z,2.10
2022-11-02T20:55:26.434Z,2.80
2022-11-02T20:58:13.248Z,2.10
2022-11-02T21:01:01.476Z,2.20
2022-11-02T21:03:48.478Z,2.20
2022-11-02T21:06:35.186Z,2.07
2022-11-02T21:09:23.954Z,2.80
2022-11-02T21:12:32.496Z,1.70
2022-11-02T21:15:19.311Z,1.60
2022-11-02T21:18:06.166Z,2.60
2022-11-02T21:20:52.900Z,1.63
2022-11-02T21:23:39.964Z,1.77
2022-11-02T21:26:28.180Z,2.70
2022-11-02T21:29:14.987Z,2.20
2022-11-02T21:32:02.044Z,1.87
2022-11-02T21:34:54.886Z,2.10
2022-11-02T21:37:45.568Z,2.20
2022-11-02T21:40:32.545Z,1.73
2022-11-02T21:43:21.547Z,1.93
2022-11-02T21:46:09.975Z,2.17
2022-11-02T21:48:57.217Z,1.77
2022-11-02T21:51:44.166Z,2.10
2022-11-02T21:54:30.899Z,1.67
2022-11-02T21:57:17.936Z,2.30
2022-11-02T22:00:07.244Z,2.20
2022-11-02T22:02:55.165Z,1.73
2022-11-02T22:05:59.645Z,2.20
2022-11-02T22:08:46.794Z,1.90
2022-11-02T22:11:33.788Z,1.97
2022-11-02T22:14:20.962Z,2.47
2022-11-02T22:17:16.860Z,2.60
2022-11-02T22:20:15.546Z,1.93
2022-11-02T22:23:03.095Z,2.10
2022-11-02T22:25:49.921Z,2.00
2022-11-02T22:28:38.394Z,1.77
2022-11-02T22:31:27.510Z,1.90
2022-11-02T22:34:17.100Z,1.40
2022-11-02T22:37:18.144Z,1.90
2022-11-02T22:40:05.731Z,1.60
2022-11-02T22:42:55.952Z,1.47
2022-11-02T22:45:43.166Z,1.70
2022-11-02T22:48:30.395Z,1.63
2022-11-02T22:51:20.983Z,1.67
2022-11-02T22:54:21.883Z,1.60
2022-11-02T22:57:11.072Z,1.63
2022-11-02T22:59:57.930Z,1.40
2022-11-02T23:02:44.861Z,1.43
2022-11-02T23:05:32.108Z,2.00
2022-11-02T23:08:20.788Z,2.30
2022-11-02T23:11:24.031Z,1.63
2022-11-02T23:14:13.093Z,1.60
2022-11-02T23:16:59.785Z,1.80
2022-11-02T23:19:46.625Z,1.97
2022-11-02T23:22:50.710Z,1.90
2022-11-02T23:25:38.703Z,1.63
2022-11-02T23:28:42.923Z,1.70
2022-11-02T23:31:49.287Z,1.67
2022-11-02T23:34:36.090Z,1.93
2022-11-02T23:37:21.970Z,1.50
2022-11-02T23:40:10.683Z,1.70
2022-11-02T23:42:58.970Z,1.57
2022-11-02T23:45:45.933Z,1.30
2022-11-02T23:48:32.842Z,1.97
2022-11-02T23:51:36.966Z,1.50
2022-11-02T23:54:41.398Z,1.70
2022-11-02T23:57:28.217Z,1.30
